createdAt,value
2022-10-13T00:00:47.802Z,12.67
2022-10-13T00:03:14.863Z,12.64
2022-10-13T00:05:43.236Z,12.65
2022-10-13T00:08:10.953Z,12.65
2022-10-13T00:10:41.897Z,12.65
2022-10-13T00:13:11.598Z,12.66
2022-10-13T00:15:43.950Z,12.68
2022-10-13T00:18:10.431Z,12.65
2022-10-13T00:20:42.646Z,12.62
2022-10-13T00:23:09.192Z,12.62
2022-10-13T00:25:35.730Z,12.62
2022-10-13T00:28:02.133Z,12.62
2022-10-13T00:30:34.800Z,12.56
2022-10-13T00:33:01.215Z,12.58
2022-10-13T00:35:27.718Z,12.58
2022-10-13T00:37:54.165Z,12.56
2022-10-13T00:40:20.640Z,12.58
2022-10-13T00:42:47.348Z,12.58
2022-10-13T00:45:26.577Z,12.58
2022-10-13T00:47:57.036Z,12.60
2022-10-13T00:50:31.826Z,12.59
2022-10-13T00:53:00.595Z,12.59
2022-10-13T00:55:31.918Z,12.56
2022-10-13T00:58:05.123Z,12.53
2022-10-13T01:00:33.784Z,12.55
2022-10-13T01:03:02.909Z,12.56
2022-10-13T01:05:30.380Z,12.54
2022-10-13T01:07:57.845Z,12.51
2022-10-13T01:11:13.624Z,12.47
2022-10-13T01:13:42.838Z,12.46
2022-10-13T01:16:27.435Z,12.41
2022-10-13T01:19:27.672Z,12.36
2022-10-13T01:22:06.313Z,12.26
2022-10-13T01:24:56.209Z,12.23
2022-10-13T01:27:38.088Z,12.22
2022-10-13T01:30:07.634Z,12.22
2022-10-13T01:32:55.481Z,12.22
2022-10-13T01:35:44.310Z,12.17
2022-10-13T01:38:46.306Z,12.14
2022-10-13T01:41:19.142Z,12.17
2022-10-13T01:43:59.143Z,12.20
2022-10-13T01:46:31.006Z,12.15
2022-10-13T01:49:01.877Z,12.16
2022-10-13T01:51:31.195Z,12.18
2022-10-13T01:53:57.618Z,12.14
2022-10-13T01:56:24.148Z,12.15
2022-10-13T01:58:53.213Z,12.11
2022-10-13T02:01:35.347Z,12.10
2022-10-13T02:04:30.303Z,12.07
2022-10-13T02:07:29.030Z,12.08
2022-10-13T02:10:13.518Z,12.07
2022-10-13T02:12:49.178Z,12.09
2022-10-13T02:15:21.834Z,12.08
2022-10-13T02:17:48.748Z,12.06
2022-10-13T02:20:17.009Z,12.03
2022-10-13T02:22:47.248Z,11.99
2022-10-13T02:25:13.860Z,11.98
2022-10-13T02:27:40.705Z,11.97
2022-10-13T02:30:07.696Z,11.96
2022-10-13T02:32:34.129Z,11.93
2022-10-13T02:35:00.539Z,11.93
2022-10-13T02:37:27.084Z,11.88
2022-10-13T02:39:53.601Z,11.84
2022-10-13T02:42:20.422Z,11.78
2022-10-13T02:44:47.069Z,11.73
2022-10-13T02:47:13.546Z,11.68
2022-10-13T02:49:39.965Z,11.63
2022-10-13T02:56:12.260Z,11.46
2022-10-13T02:58:38.838Z,11.38
2022-10-13T03:01:10.546Z,11.40
2022-10-13T03:03:37.111Z,11.42
2022-10-13T03:06:04.466Z,11.42
2022-10-13T03:08:33.214Z,11.38
2022-10-13T03:11:00.056Z,11.37
2022-10-13T03:13:27.311Z,11.34
2022-10-13T03:15:54.175Z,11.35
2022-10-13T03:18:20.660Z,11.33
2022-10-13T03:21:03.189Z,11.31
2022-10-13T03:23:30.119Z,11.34
2022-10-13T03:25:56.714Z,11.35
2022-10-13T03:28:23.430Z,11.36
2022-10-13T03:30:50.920Z,11.34
2022-10-13T03:33:17.373Z,11.32
2022-10-13T03:35:44.163Z,11.28
2022-10-13T03:38:11.222Z,11.29
2022-10-13T03:40:38.711Z,11.30
2022-10-13T03:43:05.126Z,11.28
2022-10-13T03:45:31.609Z,11.24
2022-10-13T03:47:58.718Z,11.25
2022-10-13T03:50:26.174Z,11.19
2022-10-13T03:52:54.068Z,11.20
2022-10-13T03:55:20.490Z,11.10
2022-10-13T03:57:46.903Z,11.11
2022-10-13T04:00:14.250Z,11.02
2022-10-13T04:02:40.640Z,11.06
2022-10-13T04:05:07.334Z,11.04
2022-10-13T04:07:34.435Z,11.02
2022-10-13T04:10:11.171Z,11.09
2022-10-13T04:12:38.358Z,11.12
2022-10-13T04:15:05.235Z,11.11
2022-10-13T04:17:31.659Z,11.17
2022-10-13T04:19:58.103Z,11.16
2022-10-13T04:22:24.555Z,11.15
2022-10-13T04:24:50.986Z,11.10
2022-10-13T04:27:19.845Z,11.06
2022-10-13T04:29:46.282Z,11.07
2022-10-13T04:32:12.824Z,11.06
2022-10-13T04:34:39.289Z,11.04
2022-10-13T04:37:05.733Z,10.88
2022-10-13T04:39:32.217Z,10.53
2022-10-13T04:41:59.021Z,10.50
2022-10-13T04:44:25.651Z,10.51
2022-10-13T04:46:52.147Z,10.40
2022-10-13T04:49:19.769Z,10.43
2022-10-13T04:51:46.222Z,10.56
2022-10-13T04:54:12.677Z,10.48
2022-10-13T04:56:39.095Z,10.44
2022-10-13T04:59:05.849Z,10.39
2022-10-13T05:01:33.211Z,10.35
2022-10-13T05:04:02.099Z,10.31
2022-10-13T05:06:39.295Z,9.97
2022-10-13T05:09:16.145Z,9.95
2022-10-13T05:11:42.681Z,9.92
2022-10-13T05:14:09.147Z,9.98
2022-10-13T05:16:35.598Z,10.03
2022-10-13T05:19:02.041Z,10.07
2022-10-13T05:21:29.670Z,10.05
2022-10-13T05:23:57.476Z,10.03
2022-10-13T05:26:29.195Z,9.95
2022-10-13T05:28:57.233Z,9.90
2022-10-13T05:31:27.027Z,9.75
2022-10-13T05:33:54.075Z,9.75
2022-10-13T05:36:29.979Z,9.68
2022-10-13T05:38:59.357Z,9.62
2022-10-13T05:41:27.043Z,9.59
2022-10-13T05:43:57.380Z,9.59
2022-10-13T05:46:24.050Z,9.60
2022-10-13T05:48:51.097Z,9.66
2022-10-13T05:51:43.277Z,9.71
2022-10-13T05:54:23.005Z,9.68
2022-10-13T05:57:06.736Z,9.67
2022-10-13T05:59:37.411Z,9.68
2022-10-13T06:02:07.964Z,9.75
2022-10-13T06:04:39.942Z,9.78
2022-10-13T06:07:07.900Z,9.77
2022-10-13T06:09:37.949Z,9.79
2022-10-13T06:12:05.852Z,9.90
2022-10-13T06:14:33.058Z,9.92
2022-10-13T06:17:01.567Z,9.96
2022-10-13T06:19:28.289Z,10.00
2022-10-13T06:21:54.788Z,10.04
2022-10-13T06:24:21.299Z,9.99
2022-10-13T06:26:48.065Z,10.02
2022-10-13T06:29:14.499Z,10.05
2022-10-13T06:31:40.942Z,10.10
2022-10-13T06:34:07.532Z,10.13
2022-10-13T06:36:34.000Z,10.14
2022-10-13T06:39:00.456Z,10.21
2022-10-13T06:41:26.931Z,10.27
2022-10-13T06:43:53.358Z,10.33
2022-10-13T06:46:20.999Z,10.35
2022-10-13T06:48:51.125Z,10.37
2022-10-13T06:51:17.804Z,10.41
2022-10-13T06:53:44.225Z,10.46
2022-10-13T06:56:10.946Z,10.46
2022-10-13T06:58:38.434Z,10.58
2022-10-13T07:01:05.975Z,10.63
2022-10-13T07:03:32.588Z,10.70
2022-10-13T07:06:03.737Z,10.75
2022-10-13T07:08:31.121Z,10.80
2022-10-13T07:10:57.765Z,10.76
2022-10-13T07:13:24.349Z,10.83
2022-10-13T07:15:50.795Z,10.93
2022-10-13T07:18:17.287Z,10.99
2022-10-13T07:20:43.779Z,11.06
2022-10-13T07:23:10.220Z,11.08
2022-10-13T07:25:37.680Z,11.12
2022-10-13T07:28:04.339Z,11.17
2022-10-13T07:30:30.880Z,11.16
2022-10-13T07:32:57.309Z,11.21
2022-10-13T07:35:30.265Z,11.24
2022-10-13T07:37:57.397Z,11.25
2022-10-13T07:40:24.788Z,11.30
2022-10-13T07:42:51.259Z,11.33
2022-10-13T07:45:18.208Z,11.39
2022-10-13T07:47:44.708Z,11.49
2022-10-13T07:50:11.768Z,11.54
2022-10-13T07:52:38.254Z,11.61
2022-10-13T07:55:05.236Z,11.65
2022-10-13T07:57:31.698Z,11.68
2022-10-13T07:59:58.245Z,11.72
2022-10-13T08:02:24.812Z,11.72
2022-10-13T08:04:51.243Z,11.77
2022-10-13T08:07:18.160Z,11.88
2022-10-13T08:09:44.982Z,11.91
2022-10-13T08:12:11.951Z,11.98
2022-10-13T08:14:38.489Z,12.03
2022-10-13T08:17:04.989Z,12.05
2022-10-13T08:19:31.453Z,12.17
2022-10-13T08:21:59.532Z,12.20
2022-10-13T08:24:27.564Z,12.22
2022-10-13T08:26:54.561Z,12.33
2022-10-13T08:29:23.120Z,12.41
2022-10-13T08:31:52.465Z,12.55
2022-10-13T08:34:19.756Z,12.62
2022-10-13T08:36:46.306Z,12.68
2022-10-13T08:39:13.891Z,12.78
2022-10-13T08:41:43.978Z,12.85
2022-10-13T08:47:37.407Z,13.10
2022-10-13T08:50:11.763Z,13.28
2022-10-13T08:52:48.957Z,13.38
2022-10-13T08:55:30.687Z,13.41
2022-10-13T08:57:57.434Z,13.51
2022-10-13T09:00:28.583Z,13.62
2022-10-13T09:03:06.528Z,13.66
2022-10-13T09:05:51.978Z,13.58
2022-10-13T09:08:20.650Z,13.61
2022-10-13T09:10:49.114Z,13.76
2022-10-13T09:13:19.325Z,13.86
2022-10-13T09:15:47.997Z,13.88
2022-10-13T09:18:16.534Z,13.91
2022-10-13T09:20:43.037Z,13.92
2022-10-13T09:23:19.965Z,13.94
2022-10-13T09:25:49.884Z,13.98
2022-10-13T09:28:16.272Z,14.04
2022-10-13T09:30:44.763Z,14.03
2022-10-13T09:33:14.119Z,14.09
2022-10-13T09:36:13.034Z,14.12
2022-10-13T09:38:41.949Z,14.14
2022-10-13T09:41:20.187Z,14.19
2022-10-13T09:43:46.548Z,14.21
2022-10-13T09:46:36.164Z,14.24
2022-10-13T09:49:26.494Z,14.23
2022-10-13T09:52:00.640Z,14.32
2022-10-13T09:54:48.905Z,14.32
2022-10-13T09:57:33.852Z,14.40
2022-10-13T10:00:15.658Z,14.44
2022-10-13T10:02:49.496Z,14.50
2022-10-13T10:05:24.099Z,14.55
2022-10-13T10:08:02.959Z,14.47
2022-10-13T10:10:39.540Z,14.50
2022-10-13T10:13:12.487Z,14.50
2022-10-13T10:15:55.156Z,14.53
2022-10-13T10:18:29.875Z,14.62
2022-10-13T10:21:06.742Z,14.75
2022-10-13T10:23:39.127Z,14.85
2022-10-13T10:26:20.763Z,14.99
2022-10-13T10:29:02.605Z,15.09
2022-10-13T10:31:55.555Z,15.24
2022-10-13T10:34:33.331Z,15.42
2022-10-13T10:37:08.575Z,15.53
2022-10-13T10:39:52.636Z,15.73
2022-10-13T10:42:54.414Z,16.11
2022-10-13T10:45:26.030Z,16.43
2022-10-13T10:47:59.182Z,16.58
2022-10-13T10:50:28.277Z,16.59
2022-10-13T10:53:09.208Z,16.40
2022-10-13T10:55:46.259Z,16.35
2022-10-13T10:58:33.042Z,16.09
2022-10-13T11:01:03.996Z,15.77
2022-10-13T11:03:53.988Z,15.55
2022-10-13T11:06:36.020Z,15.49
2022-10-13T11:09:04.968Z,15.69
2022-10-13T11:11:37.547Z,15.66
2022-10-13T11:14:08.259Z,15.74
2022-10-13T11:16:58.555Z,15.72
2022-10-13T11:19:37.267Z,15.80
2022-10-13T11:22:03.622Z,15.77
2022-10-13T11:24:34.436Z,15.91
2022-10-13T11:27:15.983Z,16.10
2022-10-13T11:29:58.049Z,16.15
2022-10-13T11:32:27.808Z,16.30
2022-10-13T11:34:58.530Z,15.93
2022-10-13T11:37:35.702Z,15.88
2022-10-13T11:40:23.422Z,15.64
2022-10-13T11:43:03.750Z,15.84
2022-10-13T11:45:47.338Z,16.00
2022-10-13T11:48:47.726Z,16.20
2022-10-13T11:51:29.017Z,16.01
2022-10-13T11:54:10.098Z,16.28
2022-10-13T11:56:49.117Z,16.18
2022-10-13T11:59:29.251Z,16.23
2022-10-13T12:02:10.663Z,16.07
2022-10-13T12:04:42.773Z,15.91
2022-10-13T12:07:15.707Z,15.92
2022-10-13T12:09:51.413Z,16.16
2022-10-13T12:12:22.645Z,16.52
2022-10-13T12:14:52.263Z,16.77
2022-10-13T12:17:26.337Z,16.91
2022-10-13T12:19:55.411Z,16.93
2022-10-13T12:22:22.501Z,16.34
2022-10-13T12:25:00.900Z,16.35
2022-10-13T12:27:29.024Z,16.08
2022-10-13T12:29:55.544Z,16.21
2022-10-13T12:32:25.226Z,16.07
2022-10-13T12:34:51.727Z,16.05
2022-10-13T12:37:33.669Z,16.18
2022-10-13T12:40:01.242Z,16.48
2022-10-13T12:42:30.964Z,16.38
2022-10-13T12:45:01.293Z,16.07
2022-10-13T12:51:31.721Z,15.76
2022-10-13T12:53:58.239Z,15.73
2022-10-13T12:56:31.184Z,15.66
2022-10-13T12:58:57.925Z,15.67
2022-10-13T13:01:35.199Z,15.27
2022-10-13T13:04:35.461Z,15.30
2022-10-13T13:07:04.451Z,15.43
2022-10-13T13:09:33.196Z,15.34
2022-10-13T13:12:23.574Z,15.36
2022-10-13T13:14:53.160Z,15.11
2022-10-13T13:20:28.375Z,15.59
2022-10-13T13:22:55.575Z,15.70
2022-10-13T13:25:22.369Z,15.87
2022-10-13T13:27:49.143Z,15.93
2022-10-13T13:30:19.771Z,15.94
2022-10-13T13:32:47.420Z,15.98
2022-10-13T13:35:14.140Z,16.06
2022-10-13T13:37:45.442Z,15.89
2022-10-13T13:40:20.842Z,15.81
2022-10-13T13:42:47.417Z,15.79
2022-10-13T13:45:19.478Z,15.86
2022-10-13T13:47:47.275Z,15.81
2022-10-13T13:50:18.601Z,16.02
2022-10-13T13:52:54.063Z,15.83
2022-10-13T13:55:20.520Z,15.72
2022-10-13T13:57:46.968Z,15.51
2022-10-13T14:00:15.414Z,15.43
2022-10-13T14:02:44.684Z,15.45
2022-10-13T14:05:12.379Z,15.45
2022-10-13T14:07:39.901Z,15.46
2022-10-13T14:10:08.037Z,15.43
2022-10-13T14:12:34.987Z,15.44
2022-10-13T14:15:01.490Z,15.35
2022-10-13T14:17:28.240Z,15.24
2022-10-13T14:19:56.176Z,15.23
2022-10-13T14:22:23.131Z,15.23
2022-10-13T14:24:50.087Z,15.14
2022-10-13T14:27:16.569Z,15.08
2022-10-13T14:29:43.024Z,15.19
2022-10-13T14:32:09.528Z,15.30
2022-10-13T14:34:36.050Z,15.18
2022-10-13T14:37:02.536Z,15.04
2022-10-13T14:39:28.996Z,15.03
2022-10-13T14:41:55.426Z,15.15
2022-10-13T14:44:21.862Z,15.33
2022-10-13T14:46:48.355Z,15.50
2022-10-13T14:49:14.802Z,15.53
2022-10-13T14:51:42.666Z,15.51
2022-10-13T14:54:09.203Z,15.47
2022-10-13T14:56:36.081Z,15.30
2022-10-13T14:59:05.215Z,15.29
2022-10-13T15:01:39.320Z,15.25
2022-10-13T15:04:05.744Z,15.22
2022-10-13T15:06:35.051Z,15.23
2022-10-13T15:09:01.602Z,15.20
2022-10-13T15:11:28.063Z,15.12
2022-10-13T15:13:54.610Z,15.27
2022-10-13T15:16:29.529Z,15.37
2022-10-13T15:18:56.600Z,15.29
2022-10-13T15:21:24.117Z,15.27
2022-10-13T15:23:50.599Z,15.22
2022-10-13T15:26:18.978Z,15.26
2022-10-13T15:28:47.788Z,15.34
2022-10-13T15:31:15.775Z,15.39
2022-10-13T15:33:44.730Z,15.56
2022-10-13T15:36:11.259Z,15.67
2022-10-13T15:38:39.658Z,15.69
2022-10-13T15:41:07.026Z,15.61
2022-10-13T15:43:34.594Z,15.37
2022-10-13T15:46:21.134Z,15.21
2022-10-13T15:48:48.799Z,15.07
2022-10-13T15:51:17.809Z,14.98
2022-10-13T15:53:44.280Z,14.91
2022-10-13T15:56:10.724Z,14.67
2022-10-13T15:58:37.452Z,14.63
2022-10-13T16:01:08.875Z,14.58
2022-10-13T16:03:35.524Z,14.47
2022-10-13T16:06:07.327Z,14.47
2022-10-13T16:08:37.833Z,14.44
2022-10-13T16:11:08.840Z,14.26
2022-10-13T16:13:35.308Z,14.30
2022-10-13T16:16:02.118Z,14.39
2022-10-13T16:18:30.319Z,14.44
2022-10-13T16:20:57.203Z,14.40
2022-10-13T16:23:24.300Z,14.37
2022-10-13T16:25:50.834Z,14.42
2022-10-13T16:28:17.319Z,14.41
2022-10-13T16:30:44.587Z,14.35
2022-10-13T16:33:11.039Z,14.30
2022-10-13T16:35:37.468Z,14.28
2022-10-13T16:38:03.913Z,14.17
2022-10-13T16:40:30.910Z,14.20
2022-10-13T16:42:57.382Z,14.20
2022-10-13T16:45:35.676Z,14.11
2022-10-13T16:48:08.028Z,14.11
2022-10-13T16:50:34.448Z,14.09
2022-10-13T16:53:00.884Z,14.04
2022-10-13T16:55:27.368Z,13.98
2022-10-13T16:57:53.790Z,13.90
2022-10-13T17:00:20.374Z,13.81
2022-10-13T17:02:46.995Z,13.79
2022-10-13T17:05:13.483Z,13.82
2022-10-13T17:07:39.928Z,13.77
2022-10-13T17:10:06.952Z,13.77
2022-10-13T17:12:33.775Z,13.68
2022-10-13T17:15:00.205Z,13.69
2022-10-13T17:17:27.218Z,13.66
2022-10-13T17:19:53.904Z,13.60
2022-10-13T17:22:20.462Z,13.52
2022-10-13T17:24:48.393Z,13.52
2022-10-13T17:27:16.455Z,13.55
2022-10-13T17:29:43.214Z,13.56
2022-10-13T17:32:09.963Z,13.59
2022-10-13T17:34:36.901Z,13.53
2022-10-13T17:37:05.610Z,13.47
2022-10-13T17:39:32.038Z,13.51
2022-10-13T17:41:58.601Z,13.50
2022-10-13T17:44:25.220Z,13.49
2022-10-13T17:46:51.695Z,13.50
2022-10-13T17:49:18.295Z,13.49
2022-10-13T17:51:46.088Z,13.47
2022-10-13T17:54:15.946Z,13.46
2022-10-13T17:56:43.595Z,13.49
2022-10-13T17:59:10.170Z,13.46
2022-10-13T18:01:37.077Z,13.42
2022-10-13T18:04:08.443Z,13.37
2022-10-13T18:06:39.879Z,13.31
2022-10-13T18:09:08.827Z,13.26
2022-10-13T18:11:36.173Z,13.17
2022-10-13T18:14:03.279Z,13.16
2022-10-13T18:16:29.992Z,13.09
2022-10-13T18:18:56.801Z,13.04
2022-10-13T18:21:27.714Z,13.08
2022-10-13T18:23:55.921Z,13.06
2022-10-13T18:26:24.603Z,13.12
2022-10-13T18:28:51.537Z,13.08
2022-10-13T18:31:27.612Z,13.04
2022-10-13T18:33:59.010Z,13.05
2022-10-13T18:36:33.899Z,13.11
2022-10-13T18:39:10.802Z,13.09
2022-10-13T18:41:39.597Z,13.10
2022-10-13T18:44:06.846Z,13.13
2022-10-13T18:46:34.930Z,13.14
2022-10-13T18:49:02.695Z,13.10
2022-10-13T18:51:35.644Z,13.10
2022-10-13T18:54:03.762Z,13.12
2022-10-13T18:56:31.621Z,13.10
2022-10-13T18:59:00.364Z,13.12
2022-10-13T19:01:29.449Z,13.17
2022-10-13T19:03:56.429Z,13.16
2022-10-13T19:06:26.842Z,13.16
2022-10-13T19:09:00.542Z,13.16
2022-10-13T19:11:28.602Z,13.14
2022-10-13T19:13:55.428Z,13.15
2022-10-13T19:16:24.514Z,13.12
2022-10-13T19:18:51.420Z,13.13
2022-10-13T19:21:19.219Z,13.12
2022-10-13T19:23:45.999Z,13.12
2022-10-13T19:26:23.666Z,13.07
2022-10-13T19:28:56.926Z,12.98
2022-10-13T19:31:26.214Z,12.80
2022-10-13T19:33:53.930Z,12.79
2022-10-13T19:36:39.005Z,12.69
2022-10-13T19:39:10.824Z,12.72
2022-10-13T19:41:38.503Z,12.81
2022-10-13T19:44:04.988Z,12.84
2022-10-13T19:46:42.607Z,12.86
2022-10-13T19:49:10.953Z,12.85
2022-10-13T19:51:43.151Z,12.83
2022-10-13T19:54:09.782Z,12.77
2022-10-13T19:56:37.523Z,12.78
2022-10-13T19:59:07.658Z,12.78
2022-10-13T20:01:39.889Z,12.79
2022-10-13T20:04:13.093Z,12.75
2022-10-13T20:06:39.993Z,12.79
2022-10-13T20:09:06.513Z,12.82
2022-10-13T20:11:33.046Z,12.80
2022-10-13T20:13:59.500Z,12.80
2022-10-13T20:16:26.130Z,12.75
2022-10-13T20:18:59.543Z,12.75
2022-10-13T20:21:27.887Z,12.76
2022-10-13T20:23:54.989Z,12.75
2022-10-13T20:26:22.516Z,12.75
2022-10-13T20:28:50.753Z,12.73
2022-10-13T20:31:19.327Z,12.70
2022-10-13T20:33:46.950Z,12.69
2022-10-13T20:36:15.784Z,12.68
2022-10-13T20:38:42.391Z,12.66
2022-10-13T20:41:19.987Z,12.66
2022-10-13T20:43:47.859Z,12.64
2022-10-13T20:46:16.150Z,12.60
2022-10-13T20:49:13.844Z,12.59
2022-10-13T20:51:30.299Z,12.59
2022-10-13T20:53:56.722Z,12.56
2022-10-13T20:56:25.314Z,12.55
2022-10-13T20:58:52.451Z,12.52
2022-10-13T21:01:20.752Z,12.48
2022-10-13T21:03:54.543Z,12.48
2022-10-13T21:06:22.649Z,12.46
2022-10-13T21:08:49.446Z,12.45
2022-10-13T21:11:17.885Z,12.41
2022-10-13T21:13:44.936Z,12.35
2022-10-13T21:16:17.401Z,12.31
2022-10-13T21:18:48.001Z,12.26
2022-10-13T21:21:16.799Z,12.29
2022-10-13T21:23:43.750Z,12.30
2022-10-13T21:26:11.866Z,12.28
2022-10-13T21:28:39.348Z,12.27
2022-10-13T21:31:12.819Z,12.25
2022-10-13T21:33:40.877Z,12.25
2022-10-13T21:36:34.259Z,12.20
2022-10-13T21:39:03.691Z,12.16
2022-10-13T21:41:30.465Z,12.13
2022-10-13T21:43:57.071Z,12.12
2022-10-13T21:46:26.658Z,12.07
2022-10-13T21:48:56.465Z,12.06
2022-10-13T21:51:29.550Z,12.04
2022-10-13T21:53:58.384Z,12.02
2022-10-13T21:56:26.185Z,11.96
2022-10-13T21:58:53.838Z,11.91
2022-10-13T22:01:21.101Z,11.90
2022-10-13T22:03:48.650Z,11.81
2022-10-13T22:06:19.717Z,11.73
2022-10-13T22:08:49.075Z,11.71
2022-10-13T22:11:21.705Z,11.67
2022-10-13T22:13:48.179Z,11.62
2022-10-13T22:16:18.299Z,11.64
2022-10-13T22:18:45.240Z,11.59
2022-10-13T22:21:15.116Z,11.61
2022-10-13T22:23:42.051Z,11.55
2022-10-13T22:26:09.455Z,11.56
2022-10-13T22:28:37.441Z,11.55
2022-10-13T22:31:05.932Z,11.52
2022-10-13T22:33:34.469Z,11.45
2022-10-13T22:36:05.331Z,11.43
2022-10-13T22:38:31.779Z,11.45
2022-10-13T22:41:03.163Z,11.43
2022-10-13T22:43:29.671Z,11.41
2022-10-13T22:45:57.084Z,11.41
2022-10-13T22:48:23.587Z,11.33
2022-10-13T22:50:50.094Z,11.27
2022-10-13T22:53:16.556Z,11.30
2022-10-13T22:55:42.975Z,11.33
2022-10-13T22:58:09.574Z,11.30
2022-10-13T23:00:36.831Z,11.32
2022-10-13T23:03:03.906Z,11.40
2022-10-13T23:05:30.975Z,11.47
2022-10-13T23:07:57.651Z,11.49
2022-10-13T23:10:24.503Z,11.50
2022-10-13T23:12:50.943Z,11.49
2022-10-13T23:15:17.442Z,11.47
2022-10-13T23:17:43.895Z,11.48
2022-10-13T23:20:10.504Z,11.48
2022-10-13T23:22:36.931Z,11.48
2022-10-13T23:25:03.462Z,11.46
2022-10-13T23:27:29.934Z,11.47
2022-10-13T23:29:56.403Z,11.45
2022-10-13T23:32:24.748Z,11.45
2022-10-13T23:34:51.190Z,11.45
2022-10-13T23:37:19.621Z,11.45
2022-10-13T23:39:46.351Z,11.45
2022-10-13T23:42:13.133Z,11.44
2022-10-13T23:44:39.630Z,11.41
2022-10-13T23:47:06.059Z,11.41
2022-10-13T23:49:32.473Z,11.42
2022-10-13T23:51:58.899Z,11.44
2022-10-13T23:54:25.337Z,11.45
2022-10-13T23:56:51.759Z,11.43
2022-10-13T23:59:18.188Z,11.45
